Time;durP1;ratioP1;P1;durP2;ratioP2;P2;SDS_P1;SDS_P2;PMS_P1;PMS_P2;Temp;Humidity;BMP_temperature;BMP_pressure;BME280_temperature;BME280_humidity;BME280_pressure;Samples;Min_cycle;Max_cycle;Signal;HPM_P1;HPM_P2
2022/03/08 00:00:55;;;;;;;14.60;7.10;;;;;;;-2.85;74.42;101180.23;84702;1327;23788;-77
2022/03/08 00:03:04;;;;;;;16.30;8.80;;;;;;;-2.91;74.49;101178.89;84719;1321;22653;-73
2022/03/08 00:05:16;;;;;;;16.50;8.60;;;;;;;-2.95;74.49;101183.71;84718;1328;26449;-72
2022/03/08 00:07:28;;;;;;;18.80;9.30;;;;;;;-2.96;74.61;101183.52;84741;1330;22697;-72
2022/03/08 00:09:40;;;;;;;22.40;9.90;;;;;;;-2.96;74.72;101184.38;84721;1327;25282;-72
2022/03/08 00:11:50;;;;;;;30.10;10.00;;;;;;;-2.94;74.86;101184.95;84675;1331;22653;-72
2022/03/08 00:14:02;;;;;;;19.90;9.20;;;;;;;-2.94;74.94;101184.27;84649;1330;22879;-76
2022/03/08 00:16:11;;;;;;;20.80;9.30;;;;;;;-2.92;75.08;101182.27;84702;1327;25342;-77
2022/03/08 00:18:20;;;;;;;25.20;9.80;;;;;;;-2.92;75.07;101178.69;84683;1332;22674;-76
2022/03/08 00:20:32;;;;;;;23.40;9.90;;;;;;;-2.93;74.88;101175.09;84693;1332;22617;-77
2022/03/08 00:22:44;;;;;;;19.20;8.50;;;;;;;-2.97;74.85;101168.98;84737;1327;22596;-77
2022/03/08 00:24:56;;;;;;;20.00;8.30;;;;;;;-3.03;74.82;101167.27;84708;1330;22600;-77
2022/03/08 00:27:05;;;;;;;20.10;10.40;;;;;;;-3.11;74.79;101160.54;84797;1326;22725;-77
2022/03/08 00:29:20;;;;;;;25.50;11.40;;;;;;;-3.18;74.86;101157.60;84844;1326;22586;-77
2022/03/08 00:31:32;;;;;;;20.70;9.20;;;;;;;-3.23;74.93;101155.56;84031;1325;1002500;-77
2022/03/08 00:33:44;;;;;;;17.50;9.00;;;;;;;-3.28;75.11;101150.81;84803;1329;23891;-76
2022/03/08 00:35:55;;;;;;;16.20;8.90;;;;;;;-3.30;75.11;101150.57;84799;1328;25290;-76
2022/03/08 00:38:07;;;;;;;20.50;9.30;;;;;;;-3.33;75.15;101152.86;84803;1326;22707;-76
2022/03/08 00:40:17;;;;;;;19.20;8.40;;;;;;;-3.33;75.27;101155.94;84787;1329;22608;-76
2022/03/08 00:42:25;;;;;;;20.70;8.50;;;;;;;-3.35;75.37;101156.89;84804;1326;25476;-76
2022/03/08 00:44:34;;;;;;;18.10;10.30;;;;;;;-3.37;75.28;101161.63;84692;1331;25552;-76
2022/03/08 00:46:43;;;;;;;15.80;8.90;;;;;;;-3.40;75.45;101167.00;84771;1329;23956;-77
2022/03/08 00:48:52;;;;;;;20.60;8.80;;;;;;;-3.45;75.32;101169.73;84781;1326;22583;-77
2022/03/08 00:51:01;;;;;;;14.80;8.40;;;;;;;-3.51;75.42;101169.20;84095;1326;1003804;-77
2022/03/08 00:53:10;;;;;;;15.70;8.80;;;;;;;-3.56;75.36;101175.70;84815;1326;22689;-76
2022/03/08 00:55:21;;;;;;;16.10;8.90;;;;;;;-3.62;75.40;101174.84;84761;1328;24241;-77
2022/03/08 00:57:30;;;;;;;14.80;7.90;;;;;;;-3.69;75.47;101179.20;84824;1326;22601;-77
2022/03/08 00:59:43;;;;;;;15.10;8.30;;;;;;;-3.73;75.38;101176.34;84757;1327;24223;-77
2022/03/08 01:01:53;;;;;;;17.10;8.20;;;;;;;-3.77;75.54;101174.66;84782;1329;22582;-77
2022/03/08 01:04:05;;;;;;;18.30;8.40;;;;;;;-3.79;75.70;101176.29;84781;1326;25437;-72
2022/03/08 01:06:15;;;;;;;16.50;7.70;;;;;;;-3.79;75.86;101178.70;84676;1330;22963;-72
2022/03/08 01:08:23;;;;;;;;;;;;;;;-3.80;75.90;101172.85;84674;1329;22572;-76
2022/03/08 01:10:33;;;;;;;17.50;9.70;;;;;;;-3.83;75.99;101170.55;84751;1328;22597;-77
2022/03/08 01:12:42;;;;;;;13.80;6.90;;;;;;;-3.85;75.89;101168.27;84792;1326;24271;-76
2022/03/08 01:14:54;;;;;;;14.30;7.90;;;;;;;-3.86;75.92;101167.52;84003;1327;1003669;-74
2022/03/08 01:17:04;;;;;;;19.50;9.80;;;;;;;-3.88;76.01;101167.30;84667;1328;22608;-72
2022/03/08 01:19:15;;;;;;;15.40;8.50;;;;;;;-3.92;76.03;101163.59;84769;1326;22727;-76
2022/03/08 01:21:25;;;;;;;15.20;8.70;;;;;;;-3.97;76.07;101163.45;84795;1329;22675;-77
2022/03/08 01:23:34;;;;;;;14.00;7.50;;;;;;;-4.01;76.19;101160.92;84782;1329;25930;-76
2022/03/08 01:25:43;;;;;;;17.10;7.70;;;;;;;-4.04;76.07;101159.61;84704;1332;22936;-76
2022/03/08 01:27:53;;;;;;;17.00;7.40;;;;;;;-4.06;76.12;101156.30;84698;1326;22606;-77
2022/03/08 01:30:07;;;;;;;14.00;7.40;;;;;;;-4.08;76.18;101157.77;84763;1328;22765;-76
2022/03/08 01:32:16;;;;;;;16.70;8.30;;;;;;;-4.07;76.27;101155.94;84799;1327;22805;-76
2022/03/08 01:34:29;;;;;;;17.10;8.10;;;;;;;-4.06;76.37;101154.08;84805;1327;22605;-72
2022/03/08 01:36:38;;;;;;;14.70;6.70;;;;;;;-4.06;76.38;101150.17;84788;1326;22596;-72
2022/03/08 01:38:47;;;;;;;14.10;7.60;;;;;;;-4.07;76.48;101150.81;84794;1329;22735;-72
2022/03/08 01:41:00;;;;;;;13.60;7.60;;;;;;;-4.11;76.34;101150.00;84794;1329;24270;-73
2022/03/08 01:43:13;;;;;;;22.40;9.40;;;;;;;-4.15;76.52;101146.30;84748;1327;22604;-75
2022/03/08 01:45:24;;;;;;;14.60;6.90;;;;;;;-4.17;76.47;101146.39;84748;1330;22698;-75
2022/03/08 01:47:33;;;;;;;21.00;8.60;;;;;;;-4.19;76.58;101151.61;84797;1326;22682;-78
2022/03/08 01:49:44;;;;;;;14.90;7.10;;;;;;;-4.22;76.64;101152.54;84805;1326;22601;-73
2022/03/08 01:51:52;;;;;;;12.00;7.50;;;;;;;-4.24;76.61;101150.59;84303;1322;687010;-72
2022/03/08 01:54:02;;;;;;;14.80;7.90;;;;;;;-4.25;76.81;101150.04;84675;1329;25351;-72
2022/03/08 01:56:11;;;;;;;15.30;7.80;;;;;;;-4.25;76.74;101149.70;84765;1326;22619;-72
2022/03/08 01:58:21;;;;;;;16.60;7.00;;;;;;;-4.24;76.89;101149.74;84713;1330;22742;-75
2022/03/08 02:00:33;;;;;;;14.10;7.30;;;;;;;-4.23;77.07;101152.70;84790;1326;22578;-76
2022/03/08 02:02:45;;;;;;;10.40;6.90;;;;;;;-4.22;77.02;101155.25;84747;1325;22704;-76
2022/03/08 02:04:55;;;;;;;13.00;6.80;;;;;;;-4.23;77.11;101157.94;84793;1325;22596;-77
2022/03/08 02:07:04;;;;;;;16.10;7.60;;;;;;;-4.25;77.03;101161.27;84038;1329;1002549;-77
2022/03/08 02:09:16;;;;;;;14.80;7.50;;;;;;;-4.28;76.92;101163.75;84024;1327;1003785;-76
2022/03/08 02:11:26;;;;;;;16.10;7.50;;;;;;;-4.31;77.03;101159.20;84743;1327;22585;-77
2022/03/08 02:13:35;;;;;;;14.20;7.70;;;;;;;-4.33;76.97;101157.76;84795;1329;24791;-73
2022/03/08 02:15:50;;;;;;;15.00;7.80;;;;;;;-4.36;77.07;101160.21;84793;1326;22593;-72
2022/03/08 02:18:02;;;;;;;15.60;7.80;;;;;;;-4.41;77.12;101161.73;84809;1326;23990;-73
2022/03/08 02:20:15;;;;;;;16.50;7.40;;;;;;;-4.45;77.01;101160.26;84806;1327;22662;-76
2022/03/08 02:22:25;;;;;;;12.70;7.40;;;;;;;-4.47;77.21;101160.02;84810;1326;22599;-76
2022/03/08 02:24:38;;;;;;;13.60;7.20;;;;;;;-4.48;77.31;101161.86;84814;1326;22851;-72
2022/03/08 02:26:47;;;;;;;14.20;6.30;;;;;;;-4.48;77.27;101166.79;84799;1326;22654;-75
2022/03/08 02:28:56;;;;;;;13.80;6.80;;;;;;;-4.49;77.29;101169.13;84111;1327;1003598;-80
2022/03/08 02:31:05;;;;;;;13.10;6.80;;;;;;;-4.49;77.36;101167.56;84797;1325;23980;-77
2022/03/08 02:33:14;;;;;;;14.00;7.50;;;;;;;-4.50;77.40;101173.84;84798;1327;22711;-77
2022/03/08 02:35:25;;;;;;;13.60;7.30;;;;;;;-4.53;77.38;101174.44;84687;1332;23030;-76
2022/03/08 02:37:42;;;;;;;11.10;6.80;;;;;;;-4.55;77.26;101176.05;84755;1330;24507;-77
2022/03/08 02:39:53;;;;;;;15.90;8.00;;;;;;;-4.59;77.35;101176.45;84786;1327;22586;-77
2022/03/08 02:42:06;;;;;;;20.20;8.00;;;;;;;-4.63;77.51;101173.40;84794;1325;22619;-78
2022/03/08 02:44:15;;;;;;;14.10;6.80;;;;;;;-4.67;77.49;101171.70;84794;1326;22613;-73
2022/03/08 02:46:25;;;;;;;19.10;8.50;;;;;;;-4.71;77.35;101170.90;84806;1329;21972;-73
2022/03/08 02:48:35;;;;;;;11.30;5.80;;;;;;;-4.74;77.31;101171.63;84834;1325;25282;-77
2022/03/08 02:50:44;;;;;;;13.00;7.10;;;;;;;-4.75;77.48;101173.64;84768;1326;23980;-77
2022/03/08 02:52:55;;;;;;;15.10;7.30;;;;;;;-4.74;77.62;101171.78;84802;1326;24295;-77
2022/03/08 02:55:09;;;;;;;18.80;7.70;;;;;;;-4.74;77.75;101173.17;84799;1327;22593;-77
2022/03/08 02:57:22;;;;;;;13.80;7.40;;;;;;;-4.73;77.76;101180.00;84792;1321;22885;-77
2022/03/08 02:59:31;;;;;;;14.30;8.30;;;;;;;-4.72;78.01;101185.83;84823;1327;22649;-73
2022/03/08 03:01:40;;;;;;;14.30;7.00;;;;;;;-4.75;77.90;101186.25;84770;1326;25405;-73
2022/03/08 03:03:49;;;;;;;11.70;7.80;;;;;;;-4.75;77.89;101188.44;84760;1327;22625;-77
2022/03/08 03:05:58;;;;;;;13.90;7.90;;;;;;;-4.76;77.92;101190.77;84803;1328;22587;-77
2022/03/08 03:08:08;;;;;;;19.60;7.90;;;;;;;-4.80;77.90;101189.61;84733;1327;24393;-76
2022/03/08 03:10:18;;;;;;;;;;;;;;;-4.84;77.81;101191.36;84799;1325;22563;-77
2022/03/08 03:12:30;;;;;;;13.80;7.70;;;;;;;-4.89;77.79;101195.05;84795;1326;22590;-78
2022/03/08 03:14:43;;;;;;;16.30;7.10;;;;;;;-4.89;77.98;101199.82;84761;1327;22589;-77
2022/03/08 03:16:53;;;;;;;10.40;6.80;;;;;;;-4.91;77.98;101201.80;84789;1325;22577;-78
2022/03/08 03:19:03;;;;;;;13.80;7.00;;;;;;;-4.91;77.98;101199.08;84704;1328;22596;-77
2022/03/08 03:21:12;;;;;;;16.80;7.30;;;;;;;-4.90;78.03;101200.98;84801;1326;26494;-77
2022/03/08 03:23:22;;;;;;;12.80;7.00;;;;;;;-4.89;77.92;101202.70;84793;1327;22590;-73
2022/03/08 03:25:34;;;;;;;19.50;7.80;;;;;;;-4.89;77.99;101203.73;84768;1327;25528;-73
2022/03/08 03:27:43;;;;;;;14.50;7.30;;;;;;;-4.90;78.07;101201.84;84794;1326;22616;-73
2022/03/08 03:29:56;;;;;;;18.40;8.30;;;;;;;-4.93;77.84;101205.81;84786;1324;22824;-73
2022/03/08 03:32:06;;;;;;;15.80;7.80;;;;;;;-4.96;77.95;101206.21;84786;1321;22602;-74
2022/03/08 03:34:13;;;;;;;;;;;;;;;-5.00;77.92;101213.36;84809;1325;22547;-73
2022/03/08 03:36:25;;;;;;;18.70;9.00;;;;;;;-5.08;78.01;101213.77;84748;1327;22631;-73
2022/03/08 03:38:38;;;;;;;14.70;7.20;;;;;;;-5.13;78.04;101220.88;84082;1327;1003312;-74
2022/03/08 03:40:47;;;;;;;15.20;7.80;;;;;;;-5.19;77.88;101220.82;84085;1322;1003012;-73
2022/03/08 03:42:57;;;;;;;19.00;7.30;;;;;;;-5.22;77.92;101222.38;84759;1327;22681;-73
2022/03/08 03:45:07;;;;;;;16.40;7.10;;;;;;;-5.25;78.09;101221.60;84768;1327;25279;-73
2022/03/08 03:47:18;;;;;;;;;;;;;;;-5.26;78.00;101219.34;84805;1326;22745;-73
2022/03/08 03:49:30;;;;;;;13.70;7.40;;;;;;;-5.27;78.30;101220.52;84814;1329;22839;-73
2022/03/08 03:51:41;;;;;;;14.50;7.60;;;;;;;-5.25;78.36;101214.12;84809;1325;22592;-74
2022/03/08 03:53:51;;;;;;;17.30;7.50;;;;;;;-5.22;78.51;101214.23;84703;1330;25386;-77
2022/03/08 03:56:01;;;;;;;14.10;8.10;;;;;;;-5.19;78.58;101213.80;84786;1329;22580;-77
2022/03/08 03:58:11;;;;;;;11.40;6.50;;;;;;;-5.18;78.66;101217.60;84693;1327;22574;-74
2022/03/08 04:00:21;;;;;;;11.80;6.80;;;;;;;-5.17;78.72;101218.83;84792;1323;25557;-73
2022/03/08 04:02:32;;;;;;;15.00;7.30;;;;;;;-5.20;78.49;101214.65;84752;1330;22587;-74
2022/03/08 04:04:42;;;;;;;12.00;6.80;;;;;;;-5.22;78.51;101213.73;84700;1328;22595;-73
2022/03/08 04:06:51;;;;;;;12.80;6.80;;;;;;;-5.23;78.45;101221.48;84813;1327;25460;-73
2022/03/08 04:09:00;;;;;;;8.10;5.00;;;;;;;-5.27;78.51;101225.73;84058;1326;1002964;-78
2022/03/08 04:11:13;;;;;;;16.20;8.10;;;;;;;-5.32;78.48;101220.64;84779;1327;22581;-78
2022/03/08 04:13:22;;;;;;;15.80;7.60;;;;;;;-5.35;78.44;101226.77;84680;1330;22746;-73
2022/03/08 04:15:31;;;;;;;11.70;5.70;;;;;;;-5.38;78.42;101229.39;84767;1327;22651;-73
2022/03/08 04:17:40;;;;;;;18.50;7.20;;;;;;;-5.41;78.57;101226.59;84688;1325;22589;-72
2022/03/08 04:19:51;;;;;;;17.50;7.40;;;;;;;-5.40;78.60;101231.17;84796;1326;22606;-77
2022/03/08 04:22:01;;;;;;;11.10;6.10;;;;;;;-5.41;78.63;101230.80;84052;1326;1003798;-78
2022/03/08 04:24:13;;;;;;;16.80;7.80;;;;;;;-5.41;78.80;101229.97;84797;1327;22554;-76
2022/03/08 04:26:23;;;;;;;11.60;6.50;;;;;;;-5.39;78.75;101232.08;84789;1326;22600;-78
2022/03/08 04:28:32;;;;;;;9.50;5.90;;;;;;;-5.39;78.68;101229.36;84806;1326;23972;-77
2022/03/08 04:30:46;;;;;;;16.10;8.40;;;;;;;-5.41;78.60;101230.13;84788;1325;24213;-78
2022/03/08 04:32:56;;;;;;;12.10;6.30;;;;;;;-5.44;78.66;101230.48;84770;1326;22849;-78
2022/03/08 04:35:05;;;;;;;11.50;7.20;;;;;;;-5.48;78.88;101230.88;84799;1326;22712;-76
2022/03/08 04:37:14;;;;;;;10.40;6.90;;;;;;;-5.51;78.97;101233.48;84671;1327;22649;-77
2022/03/08 04:39:23;;;;;;;8.90;6.10;;;;;;;-5.52;78.94;101233.76;84103;1326;1003738;-77
2022/03/08 04:41:33;;;;;;;10.50;5.60;;;;;;;-5.55;78.89;101235.85;84798;1327;22629;-77
2022/03/08 04:43:42;;;;;;;11.80;5.80;;;;;;;-5.57;78.84;101233.04;84828;1327;22582;-74
2022/03/08 04:45:55;;;;;;;9.70;6.00;;;;;;;-5.58;78.93;101230.77;84778;1325;22545;-74
2022/03/08 04:48:04;;;;;;;13.90;7.30;;;;;;;-5.58;78.98;101228.77;84666;1327;22603;-75
2022/03/08 04:50:16;;;;;;;9.30;5.90;;;;;;;-5.57;79.09;101226.42;84800;1325;21922;-78
2022/03/08 04:52:25;;;;;;;11.70;6.70;;;;;;;-5.54;79.12;101227.71;84773;1327;25456;-78
2022/03/08 04:54:35;;;;;;;12.20;7.40;;;;;;;-5.56;79.04;101223.25;84802;1327;24207;-73
2022/03/08 04:56:48;;;;;;;13.80;7.20;;;;;;;-5.58;78.87;101227.25;84722;1329;22579;-74
2022/03/08 04:58:58;;;;;;;17.10;8.40;;;;;;;-5.62;78.85;101232.48;84695;1329;25309;-76
2022/03/08 05:01:08;;;;;;;14.20;7.20;;;;;;;-5.67;78.93;101236.69;84060;1327;1003127;-77
2022/03/08 05:03:18;;;;;;;9.00;6.50;;;;;;;-5.71;78.88;101234.35;84805;1326;24102;-79
2022/03/08 05:05:29;;;;;;;13.30;7.00;;;;;;;-5.73;78.82;101233.75;84729;1327;22633;-78
2022/03/08 05:07:38;;;;;;;14.20;8.20;;;;;;;-5.74;78.97;101236.27;84053;1321;1003824;-76
2022/03/08 05:09:48;;;;;;;13.20;7.80;;;;;;;-5.71;79.03;101234.33;84802;1325;24006;-72
2022/03/08 05:12:01;;;;;;;11.20;7.70;;;;;;;-5.66;79.11;101239.12;84771;1322;24209;-74
2022/03/08 05:14:10;;;;;;;14.30;7.00;;;;;;;-5.62;79.11;101240.83;84722;1327;22594;-72
2022/03/08 05:16:22;;;;;;;12.70;7.00;;;;;;;-5.55;79.21;101242.30;84720;1327;24094;-72
2022/03/08 05:18:34;;;;;;;12.20;7.30;;;;;;;-5.48;79.35;101242.92;84819;1322;22586;-78
2022/03/08 05:20:44;;;;;;;14.00;7.50;;;;;;;-5.39;79.39;101247.54;84688;1330;22595;-77
2022/03/08 05:22:54;;;;;;;16.50;8.70;;;;;;;-5.30;79.42;101257.08;84056;1321;1003356;-78
2022/03/08 05:25:03;;;;;;;18.00;10.40;;;;;;;-5.21;79.50;101267.15;84801;1328;24273;-78
2022/03/08 05:27:12;;;;;;;22.60;11.20;;;;;;;-5.10;79.85;101264.66;84788;1327;22980;-79
2022/03/08 05:29:25;;;;;;;22.20;12.30;;;;;;;-5.00;80.40;101261.86;84843;1328;22743;-77
2022/03/08 05:31:35;;;;;;;23.50;13.40;;;;;;;-4.86;81.17;101260.38;84769;1324;22602;-78
2022/03/08 05:33:47;;;;;;;22.30;12.70;;;;;;;-4.72;81.19;101267.36;84691;1329;22602;-78
2022/03/08 05:35:56;;;;;;;18.80;11.00;;;;;;;-4.58;81.37;101263.64;84798;1324;22687;-76
2022/03/08 05:38:06;;;;;;;17.80;11.30;;;;;;;-4.45;81.53;101259.89;84783;1326;22772;-76
2022/03/08 05:40:16;;;;;;;16.30;11.30;;;;;;;-4.30;81.71;101266.20;84791;1325;22616;-78
2022/03/08 05:42:28;;;;;;;19.60;11.00;;;;;;;-4.16;81.83;101265.02;84651;1330;24110;-79
2022/03/08 05:44:38;;;;;;;20.00;11.80;;;;;;;-4.02;81.78;101263.99;84821;1327;22600;-74
2022/03/08 05:46:49;;;;;;;18.70;12.20;;;;;;;-3.88;81.70;101265.65;84651;1329;22597;-75
2022/03/08 05:48:59;;;;;;;16.10;11.50;;;;;;;-3.77;81.64;101276.08;84724;1320;22684;-76
2022/03/08 05:51:09;;;;;;;27.40;11.80;;;;;;;-3.66;81.62;101289.95;84743;1327;22606;-77
2022/03/08 05:53:19;;;;;;;27.30;12.60;;;;;;;-3.57;81.58;101288.04;84708;1330;22827;-78
2022/03/08 05:55:29;;;;;;;27.00;13.00;;;;;;;-3.50;81.60;101289.11;84756;1327;22855;-77
2022/03/08 05:57:38;;;;;;;34.70;15.00;;;;;;;-3.47;81.39;101290.08;84652;1329;22611;-77
2022/03/08 05:59:49;;;;;;;28.80;16.60;;;;;;;-3.43;81.36;101286.80;84798;1325;23917;-77
2022/03/08 06:01:59;;;;;;;26.40;15.00;;;;;;;-3.39;81.40;101287.46;84750;1324;22762;-76
2022/03/08 06:04:12;;;;;;;21.60;13.40;;;;;;;-3.31;81.56;101290.27;84777;1326;24251;-79
2022/03/08 06:06:21;;;;;;;19.40;13.80;;;;;;;-3.27;81.76;101292.96;84723;1324;22779;-78
2022/03/08 06:08:31;;;;;;;17.20;12.40;;;;;;;-3.21;81.76;101296.90;84707;1327;22629;-79
2022/03/08 06:10:42;;;;;;;27.30;13.50;;;;;;;-3.14;81.65;101309.10;84731;1330;22620;-76
2022/03/08 06:12:52;;;;;;;;;;;;;;;-3.02;81.62;101310.84;84689;1332;23031;-75
2022/03/08 06:15:03;;;;;;;15.40;10.90;;;;;;;-2.94;81.72;101314.67;83984;1332;1003110;-73
2022/03/08 06:17:13;;;;;;;;;;;;;;;-2.87;81.63;101314.59;84741;1330;22576;-72
2022/03/08 06:19:24;;;;;;;20.20;12.30;;;;;;;-2.80;81.73;101320.41;84779;1326;22583;-72
2022/03/08 06:21:33;;;;;;;20.00;12.40;;;;;;;-2.75;81.50;101322.95;84743;1326;22613;-72
2022/03/08 06:23:43;;;;;;;20.10;12.90;;;;;;;-2.70;81.61;101324.52;83999;1328;1003741;-73
2022/03/08 06:25:52;;;;;;;20.20;12.80;;;;;;;-2.66;81.46;101314.36;84780;1325;25438;-73
2022/03/08 06:28:02;;;;;;;23.30;14.20;;;;;;;-2.62;81.60;101311.09;84086;1326;1003100;-74
2022/03/08 06:30:14;;;;;;;17.90;12.20;;;;;;;-2.57;81.52;101312.05;84777;1326;25639;-77
2022/03/08 06:32:26;;;;;;;20.30;12.80;;;;;;;-2.53;81.54;101310.32;84792;1325;24368;-77
2022/03/08 06:34:35;;;;;;;15.40;11.60;;;;;;;-2.49;81.57;101313.18;84664;1328;23304;-73
2022/03/08 06:36:44;;;;;;;16.50;11.70;;;;;;;-2.44;81.36;101307.35;84668;1329;24401;-72
2022/03/08 06:38:54;;;;;;;20.00;11.10;;;;;;;-2.36;81.40;101308.09;84826;1326;22602;-73
2022/03/08 06:41:03;;;;;;;17.30;12.30;;;;;;;-2.31;81.50;101308.42;84774;1326;23893;-72
2022/03/08 06:43:12;;;;;;;16.70;12.20;;;;;;;-2.27;81.35;101309.04;84759;1326;24033;-73
2022/03/08 06:45:25;;;;;;;17.80;12.50;;;;;;;-2.22;81.34;101314.48;84778;1322;22911;-72
2022/03/08 06:47:39;;;;;;;16.70;11.70;;;;;;;-2.19;81.49;101313.02;84801;1323;22638;-72
2022/03/08 06:49:48;;;;;;;15.70;11.50;;;;;;;-2.18;81.37;101317.66;84844;1321;22643;-76
2022/03/08 06:51:58;;;;;;;15.20;10.60;;;;;;;-2.17;81.46;101320.27;84680;1328;22743;-76
2022/03/08 06:54:08;;;;;;;15.40;11.40;;;;;;;-2.16;81.36;101323.38;84826;1326;24258;-73
2022/03/08 06:56:16;;;;;;;;;;;;;;;-2.15;81.26;101327.17;84793;1325;22659;-72
2022/03/08 06:58:26;;;;;;;21.60;11.90;;;;;;;-2.12;81.41;101327.07;84806;1326;22605;-77
2022/03/08 07:00:36;;;;;;;15.30;10.80;;;;;;;-2.05;81.20;101333.95;84832;1326;22593;-77
2022/03/08 07:02:49;;;;;;;16.40;10.30;;;;;;;-1.99;81.25;101334.64;83369;1325;1018549;-77
2022/03/08 07:04:59;;;;;;;13.40;10.00;;;;;;;-1.92;81.15;101331.08;84763;1326;22593;-72
2022/03/08 07:07:12;;;;;;;20.10;12.50;;;;;;;-1.88;81.06;101330.69;84757;1326;22600;-71
2022/03/08 07:09:22;;;;;;;15.50;13.40;;;;;;;-1.83;81.11;101329.61;84777;1311;22613;-71
2022/03/08 07:11:33;;;;;;;16.20;11.50;;;;;;;-1.76;81.08;101329.95;84739;1330;26678;-72
2022/03/08 07:13:42;;;;;;;13.80;11.10;;;;;;;-1.72;81.01;101324.95;84777;1325;22681;-78
2022/03/08 07:15:52;;;;;;;12.10;10.10;;;;;;;-1.70;80.97;101324.15;84803;1326;24366;-77
2022/03/08 07:18:04;;;;;;;17.20;10.90;;;;;;;-1.69;80.78;101332.23;84051;1327;1003271;-75
2022/03/08 07:20:17;;;;;;;11.40;9.80;;;;;;;-1.66;80.49;101334.02;84786;1323;22574;-77
2022/03/08 07:22:26;;;;;;;12.70;9.80;;;;;;;-1.62;80.73;101335.84;84807;1326;25496;-79
2022/03/08 07:24:36;;;;;;;13.00;10.70;;;;;;;-1.56;80.59;101338.23;84780;1326;25286;-71
2022/03/08 07:26:51;;;;;;;15.20;9.30;;;;;;;-1.50;80.69;101344.52;84760;1325;22685;-76
2022/03/08 07:29:02;;;;;;;10.30;8.90;;;;;;;-1.48;80.65;101345.59;84785;1327;22593;-78
2022/03/08 07:31:12;;;;;;;12.60;9.90;;;;;;;-1.46;80.41;101355.09;84672;1325;22888;-77
2022/03/08 07:33:21;;;;;;;11.10;9.30;;;;;;;-1.42;80.29;101359.99;84745;1328;22609;-73
2022/03/08 07:35:34;;;;;;;13.10;9.90;;;;;;;-1.41;80.11;101354.88;84090;1326;1003650;-73
2022/03/08 07:37:47;;;;;;;12.10;8.80;;;;;;;-1.41;80.23;101356.42;84697;1329;22579;-72
2022/03/08 07:39:57;;;;;;;12.40;9.10;;;;;;;-1.38;80.12;101359.38;84671;1329;22786;-77
2022/03/08 07:42:05;;;;;;;;;;;;;;;-1.34;80.15;101361.89;84730;1326;22875;-77
2022/03/08 07:44:15;;;;;;;13.40;9.30;;;;;;;-1.32;80.29;101364.70;84721;1326;22865;-73
2022/03/08 07:46:28;;;;;;;10.00;9.00;;;;;;;-1.27;80.27;101369.45;84790;1326;24258;-74
2022/03/08 07:48:38;;;;;;;9.30;8.00;;;;;;;-1.24;80.28;101367.11;84724;1326;22611;-74
2022/03/08 07:50:51;;;;;;;10.90;9.70;;;;;;;-1.21;80.14;101368.23;84784;1321;22576;-76
2022/03/08 07:53:03;;;;;;;12.00;9.70;;;;;;;-1.17;80.21;101369.89;84745;1326;22661;-76
2022/03/08 07:55:14;;;;;;;16.90;9.30;;;;;;;-1.14;80.28;101369.79;84799;1326;22584;-74
2022/03/08 07:57:23;;;;;;;12.80;9.40;;;;;;;-1.11;80.11;101361.30;84800;1326;22933;-74
2022/03/08 07:59:36;;;;;;;12.00;9.60;;;;;;;-1.09;80.16;101359.30;84798;1327;24215;-79
2022/03/08 08:01:46;;;;;;;37.40;22.70;;;;;;;-1.07;79.91;101358.68;84769;1330;22600;-76
2022/03/08 08:03:56;;;;;;;14.50;11.20;;;;;;;-1.03;79.86;101356.70;84760;1327;22786;-75
2022/03/08 08:06:05;;;;;;;16.30;10.50;;;;;;;-0.99;79.91;101355.95;84781;1327;22696;-75
2022/03/08 08:08:18;;;;;;;13.50;10.60;;;;;;;-0.94;79.81;101352.46;84122;1321;1003059;-76
2022/03/08 08:10:28;;;;;;;9.70;8.40;;;;;;;-0.90;79.88;101347.61;84801;1326;22577;-77
2022/03/08 08:12:38;;;;;;;10.00;8.90;;;;;;;-0.87;79.76;101348.02;84787;1326;22937;-76
2022/03/08 08:14:50;;;;;;;11.40;9.20;;;;;;;-0.85;79.61;101343.78;84754;1327;22658;-78
2022/03/08 08:17:00;;;;;;;14.70;11.10;;;;;;;-0.82;79.80;101343.36;84737;1328;22597;-77
2022/03/08 08:19:10;;;;;;;14.70;10.20;;;;;;;-0.80;79.65;101345.46;84769;1325;22580;-79
2022/03/08 08:21:22;;;;;;;14.20;11.00;;;;;;;-0.75;79.68;101349.67;84791;1322;22719;-76
2022/03/08 08:23:32;;;;;;;13.20;10.70;;;;;;;-0.75;79.40;101349.50;84779;1322;22601;-74
2022/03/08 08:25:41;;;;;;;15.40;11.30;;;;;;;-0.74;79.32;101352.09;84771;1326;25448;-74
2022/03/08 08:27:51;;;;;;;14.50;11.40;;;;;;;-0.74;79.16;101350.54;84720;1326;22819;-73
2022/03/08 08:30:00;;;;;;;17.80;12.60;;;;;;;-0.74;79.19;101353.11;84763;1325;24801;-76
2022/03/08 08:32:11;;;;;;;13.70;12.30;;;;;;;-0.73;78.96;101352.48;84647;1328;22648;-76
2022/03/08 08:34:23;;;;;;;18.00;13.70;;;;;;;-0.72;79.26;101351.46;84613;1329;22801;-73
2022/03/08 08:36:36;;;;;;;13.20;11.20;;;;;;;-0.70;79.23;101352.69;84787;1327;22832;-72
2022/03/08 08:38:52;;;;;;;15.50;12.80;;;;;;;-0.68;79.22;101346.59;84769;1325;25352;-73
2022/03/08 08:41:02;;;;;;;16.10;13.00;;;;;;;-0.64;79.37;101342.55;84770;1327;25443;-73
2022/03/08 08:43:11;;;;;;;;;;;;;;;-0.60;79.15;101340.09;84716;1328;22593;-73
2022/03/08 08:45:24;;;;;;;18.00;13.90;;;;;;;-0.58;79.00;101338.61;84757;1327;22657;-75
2022/03/08 08:47:33;;;;;;;27.20;13.70;;;;;;;-0.52;79.28;101339.94;84747;1326;25383;-75
2022/03/08 08:49:43;;;;;;;18.40;14.30;;;;;;;-0.46;79.02;101340.23;84779;1326;22612;-74
2022/03/08 08:51:53;;;;;;;18.80;13.60;;;;;;;-0.39;79.05;101346.22;84793;1326;25319;-73
2022/03/08 08:54:04;;;;;;;18.20;13.50;;;;;;;-0.32;79.11;101345.52;84730;1327;22627;-78
2022/03/08 08:56:17;;;;;;;17.20;12.90;;;;;;;-0.21;79.10;101338.03;84813;1326;22614;-75
2022/03/08 08:58:27;;;;;;;17.20;12.60;;;;;;;-0.12;79.15;101330.52;84803;1325;22589;-77
2022/03/08 09:00:37;;;;;;;16.10;13.40;;;;;;;-0.01;79.09;101330.22;84691;1325;22593;-76
2022/03/08 09:02:52;;;;;;;15.60;11.20;;;;;;;0.06;78.76;101334.16;84678;1329;22705;-76
2022/03/08 09:05:02;;;;;;;12.20;11.00;;;;;;;0.12;78.43;101330.49;84674;1330;23963;-78
2022/03/08 09:07:12;;;;;;;13.30;11.10;;;;;;;0.17;78.24;101328.37;84783;1327;23235;-78
2022/03/08 09:09:20;;;;;;;;;;;;;;;0.25;78.35;101324.91;84821;1326;25232;-72
2022/03/08 09:11:33;;;;;;;14.30;11.60;;;;;;;0.32;78.07;101319.55;84789;1329;22581;-73
2022/03/08 09:13:46;;;;;;;15.60;12.10;;;;;;;0.42;78.42;101317.35;84709;1327;22635;-79
2022/03/08 09:15:56;;;;;;;18.40;12.90;;;;;;;0.57;78.15;101312.80;84787;1326;22597;-79
2022/03/08 09:18:07;;;;;;;13.30;10.50;;;;;;;0.71;78.16;101311.68;84751;1327;22600;-73
2022/03/08 09:20:17;;;;;;;11.90;9.10;;;;;;;0.82;77.54;101311.02;84741;1327;23187;-73
2022/03/08 09:22:27;;;;;;;12.10;9.40;;;;;;;0.88;76.50;101310.92;84790;1326;22635;-73
2022/03/08 09:24:39;;;;;;;12.00;9.90;;;;;;;0.91;76.24;101304.46;84833;1325;22577;-74
2022/03/08 09:26:51;;;;;;;13.90;9.30;;;;;;;0.94;75.93;101305.03;84735;1324;22655;-76
2022/03/08 09:29:01;;;;;;;12.80;9.30;;;;;;;0.98;75.90;101307.33;84724;1324;22709;-78
2022/03/08 09:31:10;;;;;;;13.30;10.60;;;;;;;1.05;75.86;101306.92;84744;1326;22597;-79
2022/03/08 09:33:20;;;;;;;15.20;10.50;;;;;;;1.15;75.72;101299.16;84767;1321;22577;-78
2022/03/08 09:35:29;;;;;;;12.20;10.90;;;;;;;1.22;75.45;101297.89;84751;1326;24008;-76
2022/03/08 09:37:43;;;;;;;15.50;12.10;;;;;;;1.28;74.93;101288.70;84647;1329;26481;-78
2022/03/08 09:39:54;;;;;;;22.30;15.50;;;;;;;1.36;75.36;101294.13;84731;1325;24941;-73
2022/03/08 09:42:04;;;;;;;26.70;18.30;;;;;;;1.42;75.09;101293.04;84638;1329;22622;-71
2022/03/08 09:44:17;;;;;;;23.50;16.80;;;;;;;1.45;74.62;101296.17;84756;1327;23834;-72
2022/03/08 09:46:26;;;;;;;25.50;15.90;;;;;;;1.49;74.52;101290.22;84616;1330;25310;-72
2022/03/08 09:48:36;;;;;;;18.50;13.60;;;;;;;1.52;74.06;101291.97;84807;1327;22603;-78
2022/03/08 09:50:46;;;;;;;24.70;15.10;;;;;;;1.57;73.81;101286.88;84650;1328;22591;-72
2022/03/08 09:52:55;;;;;;;;;;;;;;;1.71;74.06;101289.30;84039;1327;993519;-72
2022/03/08 09:55:04;;;;;;;18.50;13.00;;;;;;;1.79;73.65;101288.70;84797;1326;22843;-72
2022/03/08 09:57:18;;;;;;;18.50;13.00;;;;;;;1.84;73.32;101289.13;84794;1325;22728;-79
2022/03/08 09:59:30;;;;;;;14.70;12.00;;;;;;;1.90;73.22;101283.17;84807;1325;23975;-78